createdAt,value
2022-12-01T00:02:12.278Z,95248.56
2022-12-01T00:05:15.474Z,95255.38
2022-12-01T00:08:19.748Z,95248.94
2022-12-01T00:11:21.838Z,95256.16
2022-12-01T00:14:26.555Z,95256.94
2022-12-01T00:17:31.023Z,95248.75
2022-12-01T00:20:35.085Z,95252.22
2022-12-01T00:23:38.153Z,95245.00
2022-12-01T00:26:41.282Z,95253.78
2022-12-01T00:29:47.138Z,95248.47
2022-12-01T00:32:50.596Z,95250.34
2022-12-01T00:35:59.625Z,95248.47
2022-12-01T00:39:02.669Z,95237.91
2022-12-01T00:42:11.636Z,95236.03
2022-12-01T00:45:17.616Z,95237.81
2022-12-01T00:48:20.684Z,95240.66
2022-12-01T00:51:24.585Z,95248.16
2022-12-01T00:54:27.646Z,95241.56
2022-12-01T00:57:30.683Z,95245.50
2022-12-01T01:00:38.718Z,95226.28
2022-12-01T01:03:41.819Z,95241.25
2022-12-01T01:06:45.042Z,95231.50
2022-12-01T01:09:48.472Z,95236.22
2022-12-01T01:12:51.602Z,95238.88
2022-12-01T01:16:00.916Z,95240.47
2022-12-01T01:19:03.991Z,95233.06
2022-12-01T01:22:07.121Z,95233.06
2022-12-01T01:25:10.536Z,95228.53
2022-12-01T01:28:13.601Z,95205.25
2022-12-01T01:31:20.714Z,95229.81
2022-12-01T01:34:23.818Z,95232.47
2022-12-01T01:37:27.006Z,95229.81
2022-12-01T01:40:30.162Z,95211.94
2022-12-01T01:43:54.980Z,95209.59
2022-12-01T01:46:59.709Z,95205.81
2022-12-01T01:50:06.681Z,95201.41
2022-12-01T01:53:13.800Z,95208.50
2022-12-01T01:56:16.825Z,95198.44
2022-12-01T01:59:25.489Z,95203.16
2022-12-01T02:02:29.991Z,95210.06
2022-12-01T02:05:35.604Z,95206.31
2022-12-01T02:08:39.112Z,95194.06
2022-12-01T02:12:07.201Z,95198.63
2022-12-01T02:15:24.510Z,95187.97
2022-12-01T02:18:38.741Z,95192.50
2022-12-01T02:22:00.251Z,95185.25
2022-12-01T02:25:25.035Z,95173.00
2022-12-01T02:28:48.019Z,95189.06
2022-12-01T02:32:00.474Z,95186.56
2022-12-01T02:35:14.580Z,95186.38
2022-12-01T02:38:25.970Z,95186.38
2022-12-01T02:41:34.139Z,95186.69
2022-12-01T02:44:43.699Z,95177.59
2022-12-01T02:47:50.442Z,95180.75
2022-12-01T02:50:56.751Z,95177.31
2022-12-01T02:54:01.772Z,95184.50
2022-12-01T02:57:05.253Z,95176.50
2022-12-01T03:00:13.568Z,95181.84
2022-12-01T03:03:34.332Z,95178.41
2022-12-01T03:06:49.335Z,95180.75
2022-12-01T03:10:05.285Z,95181.06
2022-12-01T03:13:18.181Z,95176.50
2022-12-01T03:16:29.060Z,95175.84
2022-12-01T03:19:38.614Z,95178.41
2022-12-01T03:22:45.694Z,95186.38
2022-12-01T03:25:53.056Z,95179.78
2022-12-01T03:29:04.562Z,95181.38
2022-12-01T03:32:11.455Z,95183.72
2022-12-01T03:35:20.918Z,95185.28
2022-12-01T03:38:27.102Z,95187.97
2022-12-01T03:41:45.193Z,95176.50
2022-12-01T03:44:51.763Z,95177.59
2022-12-01T03:47:55.036Z,95173.97
2022-12-01T03:51:06.886Z,95175.25
2022-12-01T03:54:16.504Z,95183.25
2022-12-01T03:57:26.617Z,95185.59
2022-12-01T04:00:31.369Z,95174.47
2022-12-01T04:03:35.220Z,95177.13
2022-12-01T04:06:41.833Z,95174.94
2022-12-01T04:09:44.932Z,95165.84
2022-12-01T04:12:48.005Z,95159.75
2022-12-01T04:15:51.679Z,95175.59
2022-12-01T04:18:54.777Z,95187.06
2022-12-01T04:21:59.314Z,95185.38
2022-12-01T04:25:02.427Z,95183.28
2022-12-01T04:28:05.771Z,95175.13
2022-12-01T04:31:08.813Z,95182.25
2022-12-01T04:34:12.289Z,95189.13
2022-12-01T04:37:17.144Z,95189.94
2022-12-01T04:40:21.713Z,95192.91
2022-12-01T04:43:24.688Z,95195.84
2022-12-01T04:46:27.950Z,95190.31
2022-12-01T04:49:31.304Z,95188.25
2022-12-01T04:52:38.099Z,95190.63
2022-12-01T04:55:41.152Z,95193.56
2022-12-01T04:58:44.517Z,95203.41
2022-12-01T05:01:48.429Z,95194.50
2022-12-01T05:04:51.541Z,95189.91
2022-12-01T05:07:56.202Z,95187.50
2022-12-01T05:10:59.310Z,95181.31
2022-12-01T05:14:02.827Z,95186.00
2022-12-01T05:17:05.910Z,95187.75
2022-12-01T05:20:37.456Z,95186.34
2022-12-01T05:23:42.051Z,95195.31
2022-12-01T05:26:45.960Z,95197.84
2022-12-01T05:29:49.240Z,95196.69
2022-12-01T05:32:52.525Z,95195.47
2022-12-01T05:35:55.999Z,95176.75
2022-12-01T05:39:00.466Z,95186.38
2022-12-01T05:42:03.442Z,95189.00
2022-12-01T05:45:07.412Z,95200.44
2022-12-01T05:48:10.553Z,95191.06
2022-12-01T05:51:15.431Z,95200.63
2022-12-01T05:54:19.863Z,95199.84
2022-12-01T05:57:22.915Z,95201.09
2022-12-01T06:00:25.939Z,95209.09
2022-12-01T06:03:29.030Z,95210.19
2022-12-01T06:06:32.132Z,95206.44
2022-12-01T06:09:36.604Z,95208.31
2022-12-01T06:12:39.994Z,95209.41
2022-12-01T06:15:43.091Z,95205.34
2022-12-01T06:18:46.083Z,95215.41
2022-12-01T06:21:49.162Z,95213.22
2022-12-01T06:24:53.612Z,95212.59
2022-12-01T06:27:57.734Z,95208.88
2022-12-01T06:31:03.467Z,95214.22
2022-12-01T06:34:07.048Z,95210.63
2022-12-01T06:37:10.085Z,95203.91
2022-12-01T06:40:15.187Z,95202.53
2022-12-01T06:43:18.230Z,95207.25
2022-12-01T06:46:21.224Z,95197.84
2022-12-01T06:49:24.415Z,95204.19
2022-12-01T06:52:27.432Z,95201.88
2022-12-01T06:55:31.855Z,95198.72
2022-12-01T06:58:35.762Z,95200.28
2022-12-01T07:01:39.374Z,95204.53
2022-12-01T07:04:42.634Z,95202.66
2022-12-01T07:07:45.805Z,95205.31
2022-12-01T07:10:57.950Z,95211.44
2022-12-01T07:14:01.022Z,95218.66
2022-12-01T07:17:04.162Z,95220.03
2022-12-01T07:20:10.261Z,95212.97
2022-12-01T07:23:13.308Z,95220.81
2022-12-01T07:26:19.074Z,95225.38
2022-12-01T07:29:22.179Z,95221.75
2022-12-01T07:32:25.477Z,95225.19
2022-12-01T07:35:28.556Z,95225.97
2022-12-01T07:38:32.223Z,95225.97
2022-12-01T07:41:37.324Z,95224.09
2022-12-01T07:44:40.347Z,95222.84
2022-12-01T07:47:44.639Z,95224.41
2022-12-01T07:50:47.622Z,95226.78
2022-12-01T07:53:52.564Z,95231.31
2022-12-01T07:56:56.982Z,95230.53
2022-12-01T07:59:59.990Z,95231.91
2022-12-01T08:03:03.115Z,95228.16
2022-12-01T08:06:07.441Z,95224.72
2022-12-01T08:09:10.613Z,95218.59
2022-12-01T08:12:15.044Z,95226.28
2022-12-01T08:15:18.322Z,95213.56
2022-12-01T08:18:21.461Z,95218.28
2022-12-01T08:21:25.336Z,95221.25
2022-12-01T08:24:28.385Z,95210.03
2022-12-01T08:27:32.834Z,95224.94
2022-12-01T08:30:35.951Z,95230.88
2022-12-01T08:33:39.039Z,95231.78
2022-12-01T08:36:42.067Z,95230.69
2022-12-01T08:39:45.144Z,95223.78
2022-12-01T08:42:49.583Z,95225.34
2022-12-01T08:45:52.668Z,95224.88
2022-12-01T08:48:57.849Z,95222.22
2022-12-01T08:52:01.206Z,95213.41
2022-12-01T08:55:05.286Z,95216.97
2022-12-01T08:58:09.751Z,95225.94
2022-12-01T09:01:15.262Z,95219.53
2022-12-01T09:04:19.236Z,95218.72
2022-12-01T09:07:26.407Z,95219.53
2022-12-01T09:10:30.001Z,95214.00
2022-12-01T09:13:35.804Z,95210.72
2022-12-01T09:16:38.942Z,95206.22
2022-12-01T09:19:42.157Z,95207.00
2022-12-01T09:22:45.195Z,95194.56
2022-12-01T09:25:50.919Z,95202.94
2022-12-01T09:28:57.783Z,95201.38
2022-12-01T09:32:01.609Z,95201.06
2022-12-01T09:35:04.863Z,95195.25
2022-12-01T09:38:07.921Z,95179.84
2022-12-01T09:41:18.300Z,95188.34
2022-12-01T09:44:33.589Z,95189.31
2022-12-01T09:47:38.769Z,95184.81
2022-12-01T09:50:42.073Z,95185.50
2022-12-01T09:53:46.216Z,95184.44
2022-12-01T09:56:53.525Z,95171.09
2022-12-01T09:59:59.309Z,95171.44
2022-12-01T10:03:08.879Z,95166.13
2022-12-01T10:06:32.275Z,95168.47
2022-12-01T10:09:41.384Z,95158.41
2022-12-01T10:12:48.146Z,95159.69
2022-12-01T10:15:59.105Z,95161.25
2022-12-01T10:19:10.025Z,95156.72
2022-12-01T10:22:37.090Z,95161.75
2022-12-01T10:25:49.004Z,95155.94
2022-12-01T10:29:03.482Z,95151.59
2022-12-01T10:32:18.683Z,95156.25
2022-12-01T10:35:24.272Z,95157.81
2022-12-01T10:38:30.504Z,95117.69
2022-12-01T10:41:36.248Z,95157.47
2022-12-01T10:44:40.273Z,95143.66
2022-12-01T10:48:15.399Z,95141.16
2022-12-01T10:51:20.632Z,95140.84
2022-12-01T10:54:28.134Z,95144.31
2022-12-01T10:57:38.360Z,95139.47
2022-12-01T11:00:59.678Z,95140.06
2022-12-01T11:04:08.571Z,95140.38
2022-12-01T11:07:17.769Z,95130.19
2022-12-01T11:10:24.258Z,95137.88
2022-12-01T11:13:30.615Z,95141.34
2022-12-01T11:16:40.429Z,95132.84
2022-12-01T11:19:45.005Z,95135.34
2022-12-01T11:22:48.520Z,95136.31
2022-12-01T11:26:00.292Z,95137.41
2022-12-01T11:29:06.073Z,95130.50
2022-12-01T11:32:18.658Z,95122.34
2022-12-01T11:35:27.108Z,95119.66
2022-12-01T11:38:35.070Z,95129.09
2022-12-01T11:41:42.732Z,95128.00
2022-12-01T11:44:52.177Z,95128.31
2022-12-01T11:48:12.698Z,95126.44
2022-12-01T11:51:32.515Z,95122.50
2022-12-01T11:54:39.707Z,95132.06
2022-12-01T11:57:46.676Z,95130.66
2022-12-01T12:00:58.288Z,95129.88
2022-12-01T12:04:18.569Z,95122.63
2022-12-01T12:07:32.615Z,95127.22
2022-12-01T12:10:47.665Z,95112.06
2022-12-01T12:14:09.149Z,95136.78
2022-12-01T12:17:32.290Z,95121.72
2022-12-01T12:20:48.097Z,95126.75
2022-12-01T12:24:23.648Z,95128.63
2022-12-01T12:27:34.970Z,95126.25
2022-12-01T12:30:47.851Z,95130.50
2022-12-01T12:34:29.200Z,95130.81
2022-12-01T12:37:43.010Z,95128.13
2022-12-01T12:40:56.098Z,95122.34
2022-12-01T12:44:12.173Z,95126.66
2022-12-01T12:47:39.974Z,95130.03
2022-12-01T12:50:48.446Z,95138.31
2022-12-01T12:53:58.198Z,95134.56
2022-12-01T12:57:07.263Z,95133.78
2022-12-01T13:00:17.199Z,95121.94
2022-12-01T13:03:30.636Z,95130.31
2022-12-01T13:06:43.265Z,95133.09
2022-12-01T13:09:52.441Z,95133.78
2022-12-01T13:13:01.905Z,95138.31
2022-12-01T13:16:08.211Z,95142.56
2022-12-01T13:19:15.562Z,95137.22
2022-12-01T13:22:31.106Z,95135.44
2022-12-01T13:25:39.635Z,95135.19
2022-12-01T13:28:48.822Z,95141.78
2022-12-01T13:31:53.871Z,95142.56
2022-12-01T13:34:57.906Z,95139.09
2022-12-01T13:38:25.043Z,95139.91
2022-12-01T13:41:30.887Z,95140.38
2022-12-01T13:44:43.117Z,95147.59
2022-12-01T13:47:52.415Z,95142.25
2022-12-01T13:51:01.216Z,95148.06
2022-12-01T13:54:07.237Z,95147.59
2022-12-01T13:57:15.079Z,95144.63
2022-12-01T14:00:25.978Z,95133.88
2022-12-01T14:03:41.679Z,95143.03
2022-12-01T14:06:49.613Z,95142.25
2022-12-01T14:09:54.649Z,95144.63
2022-12-01T14:13:02.823Z,95140.56
2022-12-01T14:16:08.004Z,95137.88
2022-12-01T14:19:34.231Z,95137.72
2022-12-01T14:22:40.679Z,95143.53
2022-12-01T14:25:57.230Z,95143.03
2022-12-01T14:29:24.826Z,95138.81
2022-12-01T14:32:29.291Z,95142.25
2022-12-01T14:35:33.522Z,95143.81
2022-12-01T14:38:36.675Z,95142.25
2022-12-01T14:41:44.909Z,95146.81
2022-12-01T14:44:52.956Z,95141.47
2022-12-01T14:48:04.089Z,95152.13
2022-12-01T14:51:18.163Z,95158.56
2022-12-01T14:54:27.629Z,95156.97
2022-12-01T14:57:34.499Z,95158.56
2022-12-01T15:00:39.456Z,95160.44
2022-12-01T15:03:48.110Z,95164.38
2022-12-01T15:06:56.434Z,95167.81
2022-12-01T15:10:02.172Z,95157.28
2022-12-01T15:13:14.280Z,95158.72
2022-12-01T15:16:19.762Z,95171.28
2022-12-01T15:19:44.000Z,95177.38
2022-12-01T15:22:47.174Z,95161.03
2022-12-01T15:25:50.279Z,95172.06
2022-12-01T15:29:06.127Z,95173.63
2022-12-01T15:32:15.572Z,95172.53
2022-12-01T15:35:22.273Z,95176.31
2022-12-01T15:38:28.386Z,95160.44
2022-12-01T15:41:31.693Z,95177.88
2022-12-01T15:44:37.472Z,95181.03
2022-12-01T15:47:49.709Z,95180.53
2022-12-01T15:51:15.702Z,95169.81
2022-12-01T15:54:22.376Z,95182.41
2022-12-01T15:57:25.823Z,95169.53
2022-12-01T16:00:29.185Z,95163.09
2022-12-01T16:03:33.358Z,95180.53
2022-12-01T16:06:39.981Z,95177.09
2022-12-01T16:09:44.929Z,95175.03
2022-12-01T16:12:48.000Z,95175.63
2022-12-01T16:15:51.035Z,95185.09
2022-12-01T16:18:56.977Z,95180.38
2022-12-01T16:22:06.263Z,95176.72
2022-12-01T16:25:18.409Z,95189.63
2022-12-01T16:28:23.824Z,95180.50
2022-12-01T16:31:27.786Z,95189.00
2022-12-01T16:34:45.971Z,95194.81
2022-12-01T16:37:51.077Z,95194.25
2022-12-01T16:40:57.234Z,95186.25
2022-12-01T16:44:26.956Z,95192.66
2022-12-01T16:47:25.110Z,95190.75
2022-12-01T16:50:28.284Z,95192.53
2022-12-01T16:53:33.111Z,95197.88
2022-12-01T16:56:36.229Z,95196.16
2022-12-01T16:59:39.404Z,95181.19
2022-12-01T17:02:42.487Z,95205.44
2022-12-01T17:05:45.692Z,95198.84
2022-12-01T17:08:50.268Z,95206.06
2022-12-01T17:11:53.510Z,95212.78
2022-12-01T17:14:56.744Z,95200.84
2022-12-01T17:17:59.849Z,95213.09
2022-12-01T17:21:05.240Z,95216.06
2022-12-01T17:24:09.958Z,95209.44
2022-12-01T17:27:13.124Z,95216.63
2022-12-01T17:30:16.388Z,95184.53
2022-12-01T17:33:19.625Z,95215.28
2022-12-01T17:36:22.687Z,95214.97
2022-12-01T17:39:27.153Z,95217.44
2022-12-01T17:42:31.974Z,95222.59
2022-12-01T17:45:37.784Z,95217.25
2022-12-01T17:48:49.671Z,95215.84
2022-12-01T17:51:52.936Z,95225.72
2022-12-01T17:54:58.107Z,95229.78
2022-12-01T17:58:01.157Z,95226.53
2022-12-01T18:01:05.206Z,95216.94
2022-12-01T18:04:08.383Z,95225.84
2022-12-01T18:07:11.570Z,95208.59
2022-12-01T18:10:16.177Z,95219.44
2022-12-01T18:13:21.237Z,95216.09
2022-12-01T18:16:27.001Z,95228.53
2022-12-01T18:19:30.107Z,95229.31
2022-12-01T18:22:33.538Z,95228.53
2022-12-01T18:25:38.915Z,95233.97
2022-12-01T18:28:41.906Z,95227.38
2022-12-01T18:31:45.217Z,95226.59
2022-12-01T18:34:48.732Z,95229.56
2022-12-01T18:37:52.117Z,95230.84
2022-12-01T18:40:59.945Z,95232.09
2022-12-01T18:44:03.505Z,95231.78
2022-12-01T18:47:06.703Z,95241.38
2022-12-01T18:50:10.735Z,95241.38
2022-12-01T18:53:13.806Z,95242.16
2022-12-01T18:56:19.826Z,95238.69
2022-12-01T18:59:23.084Z,95247.31
2022-12-01T19:02:26.511Z,95247.31
2022-12-01T19:05:30.745Z,95244.16
2022-12-01T19:08:33.862Z,95243.84
2022-12-01T19:11:40.492Z,95249.19
2022-12-01T19:14:43.697Z,95248.09
2022-12-01T19:17:46.817Z,95251.56
2022-12-01T19:20:50.163Z,95251.91
2022-12-01T19:23:54.239Z,95258.50
2022-12-01T19:26:58.719Z,95259.50
2022-12-01T19:30:01.746Z,95264.53
2022-12-01T19:33:04.865Z,95252.78
2022-12-01T19:36:10.130Z,95251.69
2022-12-01T19:39:13.128Z,95257.69
2022-12-01T19:42:18.289Z,95261.44
2022-12-01T19:45:21.495Z,95255.31
2022-12-01T19:48:24.677Z,95255.50
2022-12-01T19:51:30.529Z,95260.81
2022-12-01T19:54:35.433Z,95265.84
2022-12-01T19:57:39.934Z,95271.69
2022-12-01T20:00:42.996Z,95264.75
2022-12-01T20:03:47.242Z,95260.44
2022-12-01T20:06:51.578Z,95270.31
2022-12-01T20:09:54.799Z,95271.41
2022-12-01T20:12:59.429Z,95261.31
2022-12-01T20:16:04.274Z,95277.22
2022-12-01T20:19:07.605Z,95279.59
2022-12-01T20:22:11.082Z,95270.81
2022-12-01T20:25:14.350Z,95278.00
2022-12-01T20:28:18.820Z,95276.63
2022-12-01T20:31:24.034Z,95266.38
2022-12-01T20:34:29.976Z,95275.22
2022-12-01T20:37:33.137Z,95278.69
2022-12-01T20:40:36.162Z,95274.28
2022-12-01T20:43:40.823Z,95282.75
2022-12-01T20:46:45.864Z,95286.81
2022-12-01T20:49:49.898Z,95286.50
2022-12-01T20:52:55.117Z,95286.00
2022-12-01T20:55:58.265Z,95294.50
2022-12-01T20:59:02.772Z,95289.66
2022-12-01T21:02:06.328Z,95303.47
2022-12-01T21:05:09.649Z,95302.69
2022-12-01T21:08:14.966Z,95288.19
2022-12-01T21:11:40.359Z,95308.81
2022-12-01T21:14:48.564Z,95300.50
2022-12-01T21:17:57.751Z,95307.25
2022-12-01T21:21:08.000Z,95307.72
2022-12-01T21:24:14.771Z,95311.50
2022-12-01T21:27:18.872Z,95307.84
2022-12-01T21:30:26.239Z,95313.75
2022-12-01T21:33:33.072Z,95315.34
2022-12-01T21:36:36.257Z,95320.50
2022-12-01T21:39:40.447Z,95330.94
2022-12-01T21:42:43.636Z,95323.75
2022-12-01T21:45:52.422Z,95317.88
2022-12-01T21:48:56.486Z,95327.00
2022-12-01T21:52:00.112Z,95325.06
2022-12-01T21:55:10.342Z,95321.50
2022-12-01T21:58:35.646Z,95321.63
2022-12-01T22:01:41.975Z,95335.91
2022-12-01T22:04:45.452Z,95330.59
2022-12-01T22:07:48.601Z,95305.47
2022-12-01T22:10:56.632Z,95324.78
2022-12-01T22:14:06.042Z,95334.66
2022-12-01T22:17:19.836Z,95329.81
2022-12-01T22:20:23.962Z,95329.81
2022-12-01T22:23:33.175Z,95329.81
2022-12-01T22:26:37.968Z,95331.50
2022-12-01T22:29:43.253Z,95329.00
2022-12-01T22:32:56.995Z,95315.59
2022-12-01T22:36:00.056Z,95324.28
2022-12-01T22:39:10.889Z,95323.50
2022-12-01T22:42:19.740Z,95316.59
2022-12-01T22:45:25.460Z,95303.97
2022-12-01T22:48:38.313Z,95309.47
2022-12-01T22:51:44.070Z,95318.94
2022-12-01T22:54:50.109Z,95317.38
2022-12-01T22:57:53.832Z,95314.72
2022-12-01T23:00:59.011Z,95320.03
2022-12-01T23:04:21.482Z,95304.75
2022-12-01T23:07:32.683Z,95316.59
2022-12-01T23:10:36.385Z,95317.69
2022-12-01T23:13:39.420Z,95296.25
2022-12-01T23:16:42.751Z,95306.31
2022-12-01T23:19:47.553Z,95307.28
2022-12-01T23:22:50.642Z,95312.34
2022-12-01T23:25:53.819Z,95315.81
2022-12-01T23:28:59.148Z,95317.94
2022-12-01T23:32:02.635Z,95318.75
2022-12-01T23:35:11.703Z,95317.16
2022-12-01T23:38:20.077Z,95317.16
2022-12-01T23:41:26.522Z,95321.22
2022-12-01T23:44:38.143Z,95322.22
2022-12-01T23:47:41.469Z,95319.03
2022-12-01T23:50:46.890Z,95317.16
2022-12-01T23:53:51.028Z,95326.75
2022-12-01T23:56:55.748Z,95331.28
